Time;durP1;ratioP1;P1;durP2;ratioP2;P2;SDS_P1;SDS_P2;PMS_P1;PMS_P2;Temp;Humidity;BMP_temperature;BMP_pressure;BME280_temperature;BME280_humidity;BME280_pressure;Samples;Min_cycle;Max_cycle;Signal;HPM_P1;HPM_P2
2022/04/15 00:02:10;;;;;;;9.65;4.82;;;;;;;;;;4945643;28;20051;-95
2022/04/15 00:04:39;;;;;;;9.98;5.15;;;;;;;;;;4952507;29;20047;-94
2022/04/15 00:07:05;;;;;;;9.70;5.20;;;;;;;;;;4947763;29;20070;-95
2022/04/15 00:09:40;;;;;;;9.38;4.95;;;;;;;;;;4946767;29;20130;-95
2022/04/15 00:15:19;;;;;;;8.55;4.70;;;;;;;;;;4946369;29;20070;-95
2022/04/15 00:17:48;;;;;;;8.68;5.25;;;;;;;;;;4961519;29;20039;-96
2022/04/15 00:20:14;;;;;;;10.00;5.05;;;;;;;;;;4952625;29;20039;-94
2022/04/15 00:22:40;;;;;;;9.57;5.00;;;;;;;;;;4941475;29;20050;-95
2022/04/15 00:25:10;;;;;;;11.35;5.10;;;;;;;;;;4958300;29;20056;-95
2022/04/15 00:27:36;;;;;;;9.00;5.05;;;;;;;;;;4943195;29;20047;-95
2022/04/15 00:30:03;;;;;;;10.18;4.82;;;;;;;;;;4958201;29;20090;-94
2022/04/15 00:32:29;;;;;;;9.32;4.78;;;;;;;;;;4941500;29;20477;-94
2022/04/15 00:34:56;;;;;;;14.15;4.90;;;;;;;;;;4956448;28;20133;-95
2022/04/15 00:37:23;;;;;;;12.45;5.25;;;;;;;;;;4956768;29;20075;-95
2022/04/15 00:39:49;;;;;;;12.65;4.68;;;;;;;;;;4940607;29;20589;-93
2022/04/15 00:42:15;;;;;;;12.93;5.10;;;;;;;;;;4940983;28;20043;-95
2022/04/15 00:44:41;;;;;;;10.52;5.15;;;;;;;;;;4941233;29;20527;-95
2022/04/15 00:47:17;;;;;;;10.57;5.07;;;;;;;;;;4958628;29;20043;-95
2022/04/15 00:49:44;;;;;;;11.32;4.97;;;;;;;;;;4945927;29;20043;-94
2022/04/15 00:52:11;;;;;;;14.15;5.25;;;;;;;;;;4959949;28;20043;-95
2022/04/15 00:54:38;;;;;;;12.40;5.18;;;;;;;;;;4960263;29;20051;-95
2022/04/15 00:57:09;;;;;;;10.02;5.20;;;;;;;;;;4964025;29;20206;-95
2022/04/15 00:59:38;;;;;;;8.75;4.85;;;;;;;;;;4962233;29;20035;-96
2022/04/15 01:02:07;;;;;;;14.98;5.40;;;;;;;;;;4964341;28;20039;-94
2022/04/15 01:04:34;;;;;;;8.38;4.63;;;;;;;;;;4956394;29;20043;-94
2022/04/15 01:07:03;;;;;;;13.45;5.53;;;;;;;;;;4957458;29;20469;-95
2022/04/15 01:09:33;;;;;;;8.07;3.70;;;;;;;;;;4959296;29;20613;-96
2022/04/15 01:12:09;;;;;;;7.90;3.90;;;;;;;;;;4962550;28;20481;-94
2022/04/15 01:14:41;;;;;;;7.80;3.85;;;;;;;;;;4964967;29;20043;-93
2022/04/15 01:17:10;;;;;;;16.02;5.45;;;;;;;;;;4962471;28;20404;-95
2022/04/15 01:19:37;;;;;;;10.60;4.38;;;;;;;;;;4959456;29;20053;-93
2022/04/15 01:22:06;;;;;;;11.02;4.05;;;;;;;;;;4956895;28;20437;-95
2022/04/15 01:24:39;;;;;;;9.02;3.97;;;;;;;;;;4957558;29;20051;-95
2022/04/15 01:27:15;;;;;;;8.82;4.10;;;;;;;;;;4958805;29;20046;-95
2022/04/15 01:32:39;;;;;;;9.05;4.30;;;;;;;;;;4963237;28;20047;-93
2022/04/15 01:35:46;;;;;;;9.02;3.60;;;;;;;;;;4969221;29;20050;-95
2022/04/15 01:38:17;;;;;;;9.20;3.47;;;;;;;;;;4951084;29;20059;-95
2022/04/15 01:40:46;;;;;;;7.55;3.78;;;;;;;;;;4971275;29;20580;-94
2022/04/15 01:43:15;;;;;;;10.13;3.60;;;;;;;;;;4972751;29;20050;-95
2022/04/15 01:45:46;;;;;;;8.00;3.10;;;;;;;;;;4958208;29;20047;-96
2022/04/15 01:48:15;;;;;;;10.10;3.70;;;;;;;;;;4962349;28;20035;-95
2022/04/15 01:51:02;;;;;;;10.23;3.53;;;;;;;;;;4967008;29;20046;-94
2022/04/15 04:56:36;;;;;;;8.18;4.93;;;;;;;;;;5555532;23;20050;31
2022/04/15 05:54:39;;;;;;;9.95;5.95;;;;;;;;;;5423850;23;20057;-93
2022/04/15 05:57:23;;;;;;;9.13;5.85;;;;;;;;;;4996222;28;20045;-94
2022/04/15 05:59:57;;;;;;;8.45;5.35;;;;;;;;;;4992633;28;20137;-95
2022/04/15 06:02:25;;;;;;;9.98;6.03;;;;;;;;;;4984822;28;20126;-95
2022/04/15 06:07:52;;;;;;;11.15;6.20;;;;;;;;;;5813661;23;20049;-92
2022/04/15 06:10:31;;;;;;;10.40;6.63;;;;;;;;;;4972695;28;20563;-96
2022/04/15 06:13:05;;;;;;;10.57;6.47;;;;;;;;;;4982963;28;20050;-95
2022/04/15 06:15:55;;;;;;;11.70;6.47;;;;;;;;;;4983359;23;20052;-93
2022/04/15 06:19:02;;;;;;;12.18;6.97;;;;;;;;;;4934155;29;20072;-94
2022/04/15 06:21:38;;;;;;;11.68;6.95;;;;;;;;;;4950999;29;20067;-95
2022/04/15 06:24:29;;;;;;;10.10;6.57;;;;;;;;;;4933132;29;20048;-94
2022/04/15 06:26:58;;;;;;;13.27;7.15;;;;;;;;;;4930447;29;20118;-96
2022/04/15 06:50:16;;;;;;;19.52;10.02;;;;;;;;;;5859722;23;20122;-94
2022/04/15 07:21:48;;;;;;;21.30;12.35;;;;;;;;;;5006146;28;20047;-93
2022/04/15 07:24:21;;;;;;;21.50;11.60;;;;;;;;;;4982376;28;20059;-94
2022/04/15 08:35:20;;;;;;;9.00;5.57;;;;;;;;;;5009360;28;20070;-96
2022/04/15 09:14:47;;;;;;;11.90;6.05;;;;;;;;;;4980443;28;20084;-92
2022/04/15 09:27:48;;;;;;;12.57;6.57;;;;;;;;;;5149307;23;20066;-93
2022/04/15 09:30:14;;;;;;;14.07;6.88;;;;;;;;;;4941225;29;20094;-90
2022/04/15 09:32:43;;;;;;;9.90;5.28;;;;;;;;;;4946085;29;20047;-95
2022/04/15 09:35:10;;;;;;;11.35;6.20;;;;;;;;;;4924865;29;20082;-96
2022/04/15 09:37:43;;;;;;;12.93;6.75;;;;;;;;;;4924736;29;20047;-95
2022/04/15 09:40:14;;;;;;;11.80;6.93;;;;;;;;;;4926012;29;20051;-95
2022/04/15 09:42:45;;;;;;;12.38;6.38;;;;;;;;;;4925446;29;20039;-95
2022/04/15 09:45:17;;;;;;;13.65;6.97;;;;;;;;;;4928351;29;20467;-96
2022/04/15 09:47:43;;;;;;;9.40;6.00;;;;;;;;;;4929454;29;20139;-96
2022/04/15 09:50:29;;;;;;;10.50;6.63;;;;;;;;;;4927354;29;20031;-94
2022/04/15 09:52:56;;;;;;;11.30;6.50;;;;;;;;;;4926011;29;20142;-96
2022/04/15 09:55:25;;;;;;;12.35;6.97;;;;;;;;;;4940793;29;20067;-94
2022/04/15 09:57:54;;;;;;;12.02;6.90;;;;;;;;;;4927736;29;20102;-94
2022/04/15 10:00:21;;;;;;;12.48;6.40;;;;;;;;;;4940852;29;20039;-95
2022/04/15 10:02:49;;;;;;;8.13;5.60;;;;;;;;;;4924452;29;20051;-95
2022/04/15 10:05:15;;;;;;;9.27;6.32;;;;;;;;;;4923819;29;20035;-96
2022/04/15 10:07:42;;;;;;;11.25;6.20;;;;;;;;;;4923492;29;20078;-95
2022/04/15 10:10:09;;;;;;;11.15;6.40;;;;;;;;;;4940145;29;20039;-95
2022/04/15 10:12:41;;;;;;;13.88;6.50;;;;;;;;;;4940246;29;20074;-95
2022/04/15 10:15:09;;;;;;;14.77;7.43;;;;;;;;;;4924674;29;20036;-94
2022/04/15 10:17:36;;;;;;;13.25;6.93;;;;;;;;;;4923248;29;20058;-94
2022/04/15 10:20:03;;;;;;;14.45;7.43;;;;;;;;;;4923523;29;20440;-95
2022/04/15 10:22:29;;;;;;;11.17;7.17;;;;;;;;;;4939352;29;20042;-95
2022/04/15 10:24:55;;;;;;;13.50;7.57;;;;;;;;;;4939337;29;20084;-94
2022/04/15 10:27:30;;;;;;;10.15;7.20;;;;;;;;;;4921878;29;20490;-96
2022/04/15 10:30:13;;;;;;;13.93;7.97;;;;;;;;;;4923098;29;20058;-96
2022/04/15 10:32:57;;;;;;;12.02;7.50;;;;;;;;;;4923243;29;20044;-94
2022/04/15 10:35:25;;;;;;;11.10;6.95;;;;;;;;;;4922732;29;20130;-95
2022/04/15 10:38:00;;;;;;;11.50;7.40;;;;;;;;;;4923134;29;20054;-95
2022/04/15 10:40:34;;;;;;;14.23;7.60;;;;;;;;;;4923402;29;20043;-95
2022/04/15 10:43:06;;;;;;;14.60;8.00;;;;;;;;;;4922903;29;20043;-95
2022/04/15 10:45:35;;;;;;;12.00;7.00;;;;;;;;;;4923080;29;20075;-95
2022/04/15 10:48:02;;;;;;;12.43;7.45;;;;;;;;;;5088121;23;20052;-95
2022/04/15 10:56:31;;;;;;;11.50;8.13;;;;;;;;;;5072149;23;20417;-91
2022/04/15 11:07:46;;;;;;;10.65;6.30;;;;;;;;;;5851012;23;20055;-96
2022/04/15 11:19:13;;;;;;;15.23;6.45;;;;;;;;;;5463617;23;20054;-95
2022/04/15 11:21:40;;;;;;;11.48;6.32;;;;;;;;;;4930319;29;20047;-95
2022/04/15 11:24:11;;;;;;;12.68;7.05;;;;;;;;;;4927839;29;20058;-95
2022/04/15 11:26:38;;;;;;;11.13;6.28;;;;;;;;;;4943983;29;20039;-95
2022/04/15 11:29:09;;;;;;;9.95;6.57;;;;;;;;;;4945174;29;20050;-96
2022/04/15 11:31:49;;;;;;;10.93;6.70;;;;;;;;;;4912299;29;20057;-95
2022/04/15 11:34:16;;;;;;;13.13;7.03;;;;;;;;;;4913449;29;20085;-94
2022/04/15 11:36:47;;;;;;;13.18;6.97;;;;;;;;;;4912837;29;20055;-96
2022/04/15 11:39:25;;;;;;;13.70;7.00;;;;;;;;;;4928396;29;20051;-96
2022/04/15 11:41:54;;;;;;;13.57;7.00;;;;;;;;;;4914377;29;20075;-96
2022/04/15 11:44:22;;;;;;;10.88;6.43;;;;;;;;;;4931434;29;20245;-96
2022/04/15 11:46:52;;;;;;;11.35;5.97;;;;;;;;;;4947088;29;20198;-96
2022/04/15 11:49:26;;;;;;;10.35;6.13;;;;;;;;;;4942970;29;20279;-96
2022/04/15 11:52:00;;;;;;;9.57;6.45;;;;;;;;;;4927331;29;20043;-95
2022/04/15 11:54:39;;;;;;;13.68;6.40;;;;;;;;;;4926218;29;20047;-96
2022/04/15 11:57:06;;;;;;;10.27;6.57;;;;;;;;;;4927037;29;20047;-95
2022/04/15 11:59:39;;;;;;;12.40;6.57;;;;;;;;;;4925228;29;20050;-96
2022/04/15 12:02:05;;;;;;;10.13;6.38;;;;;;;;;;4941645;29;20458;-95
2022/04/15 12:04:34;;;;;;;10.93;7.03;;;;;;;;;;4910382;29;20138;-96
2022/04/15 12:07:01;;;;;;;15.10;7.15;;;;;;;;;;4926975;29;20134;-95
2022/04/15 12:09:27;;;;;;;12.13;7.40;;;;;;;;;;4928248;29;20043;-96
2022/04/15 12:12:03;;;;;;;;;;;;;;;;;;;;;
2022/04/15 12:14:38;;;;;;;13.43;7.38;;;;;;;;;;4941155;29;20476;-94
2022/04/15 12:17:04;;;;;;;10.73;6.82;;;;;;;;;;4927340;29;20452;-94
2022/04/15 12:19:36;;;;;;;9.90;6.90;;;;;;;;;;4930117;29;20095;-96
2022/04/15 12:22:32;;;;;;;12.02;6.68;;;;;;;;;;4932766;29;20047;-96
2022/04/15 12:26:13;;;;;;;10.38;6.03;;;;;;;;;;4932412;29;20054;-95
2022/04/15 12:41:59;;;;;;;12.32;6.90;;;;;;;;;;5512622;23;20059;-92
2022/04/15 14:26:49;;;;;;;13.65;9.27;;;;;;;;;;6180159;22;1366293;-84
2022/04/15 14:29:15;;;;;;;11.73;7.63;;;;;;;;;;6127796;23;20022;-89
2022/04/15 14:31:41;;;;;;;13.70;6.97;;;;;;;;;;6135047;23;20029;-90
2022/04/15 14:34:07;;;;;;;10.05;6.20;;;;;;;;;;6162564;23;20509;-90
2022/04/15 14:36:33;;;;;;;11.52;6.70;;;;;;;;;;6162773;23;20447;-91
2022/04/15 14:38:59;;;;;;;11.43;6.78;;;;;;;;;;6163583;23;20018;-92
2022/04/15 14:41:25;;;;;;;12.43;6.45;;;;;;;;;;6187605;23;20017;-90
2022/04/15 14:43:54;;;;;;;13.98;6.38;;;;;;;;;;6194722;23;20013;-91
2022/04/15 14:46:21;;;;;;;13.82;6.97;;;;;;;;;;6167577;23;20437;-90
2022/04/15 14:48:47;;;;;;;11.50;6.40;;;;;;;;;;6193150;23;20017;-91
2022/04/15 14:51:15;;;;;;;11.63;6.70;;;;;;;;;;6193922;23;20092;-91
2022/04/15 14:53:42;;;;;;;11.63;6.50;;;;;;;;;;6200944;23;20013;-91
2022/04/15 14:56:08;;;;;;;12.00;6.68;;;;;;;;;;6203449;23;20338;-91
2022/04/15 14:58:34;;;;;;;12.63;7.07;;;;;;;;;;6176029;23;20048;-90
2022/04/15 15:01:01;;;;;;;13.68;6.82;;;;;;;;;;6196420;23;20013;-91
2022/04/15 15:03:30;;;;;;;9.95;6.80;;;;;;;;;;6172324;23;20020;-93
2022/04/15 15:05:58;;;;;;;12.20;7.15;;;;;;;;;;6194912;23;20429;-92
2022/04/15 15:08:24;;;;;;;11.40;6.75;;;;;;;;;;6195151;23;20024;-91
2022/04/15 15:10:53;;;;;;;15.02;6.88;;;;;;;;;;6172880;23;20067;-90
2022/04/15 15:13:20;;;;;;;11.07;6.70;;;;;;;;;;6170797;23;20063;-89
2022/04/15 15:15:49;;;;;;;11.43;6.10;;;;;;;;;;6191627;23;20578;-89
2022/04/15 15:18:15;;;;;;;11.93;6.50;;;;;;;;;;6166853;23;20080;-89
2022/04/15 15:20:41;;;;;;;11.88;5.97;;;;;;;;;;6191665;23;20020;-89
2022/04/15 15:23:07;;;;;;;12.10;6.95;;;;;;;;;;6192371;23;20067;-91
2022/04/15 15:31:03;;;;;;;11.73;6.57;;;;;;;;;;6188060;23;20025;-90
2022/04/15 15:33:29;;;;;;;11.13;7.03;;;;;;;;;;6186837;23;20023;-88
2022/04/15 15:35:56;;;;;;;13.57;6.25;;;;;;;;;;6185874;23;20337;-92
2022/04/15 15:38:25;;;;;;;11.75;6.10;;;;;;;;;;6163494;23;20316;-91
2022/04/15 15:40:52;;;;;;;12.82;6.32;;;;;;;;;;6160382;23;20307;-91
2022/04/15 15:43:20;;;;;;;10.70;6.10;;;;;;;;;;6185851;23;20163;-91
2022/04/15 15:45:49;;;;;;;11.25;6.55;;;;;;;;;;6160298;23;20072;-90
2022/04/15 15:48:21;;;;;;;14.07;7.32;;;;;;;;;;6160779;23;20013;-92
2022/04/15 15:50:47;;;;;;;11.90;6.90;;;;;;;;;;6185595;23;20079;-91
2022/04/15 15:53:16;;;;;;;14.32;7.10;;;;;;;;;;6185541;23;20017;-91
2022/04/15 15:55:42;;;;;;;14.75;6.38;;;;;;;;;;6185682;23;20079;-92
2022/04/15 15:58:08;;;;;;;15.35;7.75;;;;;;;;;;6160907;23;20096;-90
2022/04/15 16:00:35;;;;;;;13.75;6.45;;;;;;;;;;6160967;23;20426;-92
2022/04/15 16:03:02;;;;;;;10.75;6.15;;;;;;;;;;6185167;23;20009;-90
2022/04/15 16:05:28;;;;;;;14.63;7.70;;;;;;;;;;6185122;23;20027;-90
2022/04/15 16:07:54;;;;;;;14.55;6.32;;;;;;;;;;6185772;23;20017;-90
2022/04/15 16:10:20;;;;;;;12.13;6.82;;;;;;;;;;6160861;23;20017;-90
2022/04/15 16:12:47;;;;;;;9.45;6.60;;;;;;;;;;6185524;23;20020;-90
2022/04/15 16:15:15;;;;;;;15.85;7.57;;;;;;;;;;6160573;23;20013;-92
2022/04/15 16:17:43;;;;;;;12.80;7.53;;;;;;;;;;6160648;23;20076;-91
2022/04/15 16:20:10;;;;;;;12.35;7.60;;;;;;;;;;6166474;23;20017;-92
2022/04/15 16:22:38;;;;;;;13.38;7.70;;;;;;;;;;6189169;23;20017;-92
2022/04/15 16:25:04;;;;;;;13.05;7.00;;;;;;;;;;6161391;23;20315;-91
2022/04/15 16:27:30;;;;;;;14.23;7.35;;;;;;;;;;6161184;23;20013;-91
2022/04/15 16:29:59;;;;;;;16.55;7.05;;;;;;;;;;6161788;23;20343;-91
2022/04/15 16:32:25;;;;;;;11.77;7.55;;;;;;;;;;6185050;23;20587;-90
2022/04/15 16:34:51;;;;;;;16.08;7.45;;;;;;;;;;6186124;23;20017;-92
2022/04/15 16:37:17;;;;;;;14.98;7.00;;;;;;;;;;6184006;23;20013;-90
2022/04/15 16:39:43;;;;;;;11.10;6.47;;;;;;;;;;6183611;23;20013;-91
2022/04/15 16:42:12;;;;;;;12.55;7.20;;;;;;;;;;6184610;23;20021;-89
2022/04/15 16:44:38;;;;;;;12.73;7.35;;;;;;;;;;6160452;23;20128;-91
2022/04/15 16:47:04;;;;;;;11.07;6.45;;;;;;;;;;6184394;23;20016;-90
2022/04/15 16:49:30;;;;;;;12.07;7.43;;;;;;;;;;6184465;23;20100;-90
2022/04/15 16:51:59;;;;;;;9.95;6.30;;;;;;;;;;6159471;23;20040;-89
2022/04/15 16:58:37;;;;;;;11.60;6.70;;;;;;;;;;6184805;23;20097;-89
2022/04/15 16:59:56;;;;;;;13.05;6.78;;;;;;;;;;6185925;23;20013;-90
2022/04/15 17:02:22;;;;;;;11.00;6.50;;;;;;;;;;6161117;23;20013;-91
2022/04/15 17:04:48;;;;;;;13.30;7.20;;;;;;;;;;6188079;23;20133;-90
2022/04/15 17:07:14;;;;;;;11.23;6.55;;;;;;;;;;6188071;23;20024;-90
2022/04/15 17:09:40;;;;;;;13.27;6.70;;;;;;;;;;6187172;23;20068;-90
2022/04/15 17:12:06;;;;;;;12.55;6.55;;;;;;;;;;6188882;23;20024;-90
2022/04/15 17:14:32;;;;;;;13.02;7.00;;;;;;;;;;6187090;23;20524;-90
2022/04/15 17:17:02;;;;;;;13.20;6.43;;;;;;;;;;6163820;23;20110;-90
2022/04/15 17:19:30;;;;;;;11.75;6.88;;;;;;;;;;6160735;23;20009;-90
2022/04/15 17:21:56;;;;;;;12.75;6.80;;;;;;;;;;6162478;23;20024;-90
2022/04/15 17:24:22;;;;;;;11.55;6.65;;;;;;;;;;6187800;23;20017;-91
2022/04/15 17:26:48;;;;;;;12.18;7.22;;;;;;;;;;6184607;23;20307;-92
2022/04/15 17:29:15;;;;;;;11.63;6.60;;;;;;;;;;6183738;23;20028;-91
2022/04/15 17:31:41;;;;;;;13.85;7.82;;;;;;;;;;6160154;23;20024;-90
2022/04/15 17:34:09;;;;;;;14.70;8.35;;;;;;;;;;6184832;23;20362;-91
2022/04/15 17:36:35;;;;;;;13.30;7.55;;;;;;;;;;6160314;23;20044;-90
2022/04/15 17:39:01;;;;;;;13.40;7.63;;;;;;;;;;6159396;23;20019;-90
2022/04/15 17:41:27;;;;;;;11.55;7.38;;;;;;;;;;6184888;23;20013;-90
2022/04/15 17:43:53;;;;;;;13.48;7.55;;;;;;;;;;6159180;23;20013;-91
2022/04/15 17:46:19;;;;;;;13.75;7.63;;;;;;;;;;6159542;23;20013;-90
2022/04/15 17:48:46;;;;;;;14.75;8.20;;;;;;;;;;6184006;23;20017;-91
2022/04/15 17:51:15;;;;;;;11.95;8.38;;;;;;;;;;6184312;23;20017;-91
2022/04/15 17:53:45;;;;;;;14.40;8.02;;;;;;;;;;6185090;23;20013;-92
2022/04/15 17:56:14;;;;;;;12.18;8.43;;;;;;;;;;6186392;23;20021;-90
2022/04/15 17:58:40;;;;;;;13.57;7.90;;;;;;;;;;6186565;23;20386;-91
2022/04/15 18:01:06;;;;;;;12.82;8.27;;;;;;;;;;6184892;23;20076;-90
2022/04/15 18:03:35;;;;;;;10.57;7.85;;;;;;;;;;6185745;23;20009;-91
2022/04/15 18:06:01;;;;;;;14.75;7.68;;;;;;;;;;6161016;23;20024;-91
2022/04/15 18:08:28;;;;;;;14.05;8.45;;;;;;;;;;6159626;23;20024;-91
2022/04/15 18:10:54;;;;;;;11.70;8.07;;;;;;;;;;6159584;23;20350;-91
2022/04/15 18:13:20;;;;;;;12.98;8.82;;;;;;;;;;6184192;23;20017;-90
2022/04/15 18:15:46;;;;;;;13.60;9.32;;;;;;;;;;6184457;23;20454;-91
2022/04/15 18:18:12;;;;;;;16.48;9.43;;;;;;;;;;6159819;23;20048;-91
2022/04/15 18:20:39;;;;;;;13.02;8.50;;;;;;;;;;6184665;23;20071;-91
2022/04/15 18:23:05;;;;;;;12.45;8.93;;;;;;;;;;6184851;23;20013;-91
2022/04/15 18:25:32;;;;;;;14.90;9.68;;;;;;;;;;6159601;23;20013;-91
2022/04/15 18:27:58;;;;;;;15.05;10.18;;;;;;;;;;6159733;23;20032;-91
2022/04/15 18:30:25;;;;;;;15.48;9.77;;;;;;;;;;6184307;23;20099;-91
2022/04/15 18:32:51;;;;;;;15.27;9.40;;;;;;;;;;6184554;23;20016;-91
2022/04/15 18:35:24;;;;;;;14.80;9.43;;;;;;;;;;6185819;23;20439;-90
2022/04/15 18:37:53;;;;;;;14.50;9.50;;;;;;;;;;6184265;23;20067;-90
2022/04/15 18:40:19;;;;;;;16.58;9.70;;;;;;;;;;6162969;23;20095;-90
2022/04/15 18:42:45;;;;;;;15.07;8.77;;;;;;;;;;6185871;23;20013;-90
2022/04/15 18:45:11;;;;;;;11.88;9.07;;;;;;;;;;6161223;23;20013;-91
2022/04/15 18:47:41;;;;;;;16.45;9.82;;;;;;;;;;6185531;23;20016;-91
2022/04/15 18:52:54;;;;;;;17.88;9.75;;;;;;;;;;6183612;23;20450;-90
2022/04/15 18:55:21;;;;;;;17.42;9.48;;;;;;;;;;6185182;23;20017;-90
2022/04/15 18:57:50;;;;;;;16.38;9.32;;;;;;;;;;6183632;23;20020;-91
2022/04/15 19:00:16;;;;;;;13.18;9.02;;;;;;;;;;6184596;23;20013;-90
2022/04/15 19:02:43;;;;;;;14.20;8.93;;;;;;;;;;6185700;23;20013;-90
2022/04/15 19:05:12;;;;;;;13.70;8.95;;;;;;;;;;6186977;23;20438;-91
2022/04/15 19:07:41;;;;;;;14.63;8.65;;;;;;;;;;6186408;23;20017;-90
2022/04/15 19:10:08;;;;;;;14.13;9.23;;;;;;;;;;6185727;23;20116;-90
2022/04/15 19:12:34;;;;;;;15.35;9.52;;;;;;;;;;6187086;23;20017;-90
2022/04/15 19:15:02;;;;;;;16.23;9.40;;;;;;;;;;6162501;23;20020;-91
2022/04/15 19:17:31;;;;;;;14.48;9.60;;;;;;;;;;6163480;23;20382;-90
2022/04/15 19:19:59;;;;;;;15.70;10.27;;;;;;;;;;6189290;23;20009;-92
2022/04/15 19:22:26;;;;;;;14.35;8.70;;;;;;;;;;6189086;23;20346;-91
2022/04/15 19:24:52;;;;;;;14.63;8.43;;;;;;;;;;6163102;23;20108;-91
2022/04/15 19:27:20;;;;;;;14.02;8.85;;;;;;;;;;6162394;23;20017;-91
2022/04/15 19:29:48;;;;;;;15.93;8.73;;;;;;;;;;6161407;23;20021;-90
2022/04/15 19:32:14;;;;;;;19.15;9.30;;;;;;;;;;6161544;23;20021;-90
2022/04/15 19:34:41;;;;;;;13.95;8.55;;;;;;;;;;6187854;23;20013;-90
2022/04/15 19:37:07;;;;;;;18.08;9.60;;;;;;;;;;6187514;23;20024;-92
2022/04/15 19:39:33;;;;;;;14.48;9.35;;;;;;;;;;6186836;23;20035;-91
2022/04/15 19:41:59;;;;;;;16.35;9.77;;;;;;;;;;6187853;23;20320;-91
2022/04/15 19:44:25;;;;;;;17.63;9.15;;;;;;;;;;6187033;23;20013;-91
2022/04/15 19:46:51;;;;;;;16.48;8.65;;;;;;;;;;6187372;23;20037;-91
2022/04/15 19:49:17;;;;;;;18.25;9.98;;;;;;;;;;6161890;23;20017;-91
2022/04/15 19:51:49;;;;;;;13.95;9.95;;;;;;;;;;6186032;23;20048;-90
2022/04/15 19:54:15;;;;;;;15.18;9.35;;;;;;;;;;6161297;23;20017;-91
2022/04/15 20:02:10;;;;;;;15.52;9.55;;;;;;;;;;6185584;23;20311;-90
2022/04/15 20:04:36;;;;;;;17.95;9.48;;;;;;;;;;6185358;23;20025;-91
2022/04/15 20:07:02;;;;;;;19.83;10.02;;;;;;;;;;6185980;23;20024;-90
2022/04/15 20:09:28;;;;;;;14.35;9.10;;;;;;;;;;6185300;23;20100;-90
2022/04/15 20:11:58;;;;;;;14.65;8.95;;;;;;;;;;6162604;23;20013;-89
2022/04/15 20:14:24;;;;;;;15.18;9.20;;;;;;;;;;6160580;23;20017;-90
2022/04/15 20:16:50;;;;;;;14.85;10.07;;;;;;;;;;6186047;23;20342;-90
2022/04/15 20:19:16;;;;;;;13.18;9.00;;;;;;;;;;6188741;23;20013;-90
2022/04/15 20:21:44;;;;;;;14.23;9.10;;;;;;;;;;6187504;23;20016;-91
2022/04/15 20:24:10;;;;;;;12.52;9.38;;;;;;;;;;6160479;23;20079;-91
2022/04/15 20:26:37;;;;;;;13.35;8.57;;;;;;;;;;6162478;23;20021;-90
2022/04/15 20:29:04;;;;;;;12.93;8.93;;;;;;;;;;6186024;23;20020;-90
2022/04/15 20:31:31;;;;;;;13.60;9.05;;;;;;;;;;6160661;23;20024;-90
2022/04/15 20:33:57;;;;;;;15.38;9.48;;;;;;;;;;6160843;23;20019;-91
2022/04/15 20:36:23;;;;;;;14.23;9.00;;;;;;;;;;6160907;23;20017;-91
2022/04/15 20:38:49;;;;;;;17.38;10.27;;;;;;;;;;6185554;23;20391;-91
2022/04/15 20:41:15;;;;;;;15.40;9.75;;;;;;;;;;6185861;23;20072;-89
2022/04/15 20:43:42;;;;;;;15.32;9.48;;;;;;;;;;6187539;23;20009;-91
2022/04/15 20:46:08;;;;;;;20.33;9.60;;;;;;;;;;6186117;23;20064;-90
2022/04/15 20:51:22;;;;;;;14.75;9.15;;;;;;;;;;6190273;23;20028;-91
2022/04/15 20:53:48;;;;;;;17.35;10.10;;;;;;;;;;6164404;23;20020;-90
2022/04/15 20:56:14;;;;;;;18.58;10.13;;;;;;;;;;6189746;23;20052;-90
2022/04/15 20:58:42;;;;;;;16.58;10.27;;;;;;;;;;6187372;23;20019;-90
2022/04/15 21:01:09;;;;;;;15.60;10.82;;;;;;;;;;6188260;23;20020;-90
2022/04/15 21:03:34;;;;;;;19.15;11.40;;;;;;;;;;6188173;23;20009;-91
2022/04/15 21:06:01;;;;;;;19.80;11.88;;;;;;;;;;6186295;23;20051;-90
2022/04/15 21:08:27;;;;;;;17.92;11.23;;;;;;;;;;6161227;23;20021;-91
2022/04/15 21:10:54;;;;;;;20.77;12.88;;;;;;;;;;6185439;23;20013;-91
2022/04/15 21:13:20;;;;;;;17.42;11.50;;;;;;;;;;6160385;23;20307;-90
2022/04/15 21:15:49;;;;;;;19.50;11.63;;;;;;;;;;6161387;23;20017;-90
2022/04/15 21:18:16;;;;;;;16.70;11.70;;;;;;;;;;6186258;23;20020;-91
2022/04/15 21:20:45;;;;;;;17.45;11.27;;;;;;;;;;6186272;23;20107;-90
2022/04/15 21:23:11;;;;;;;16.33;11.85;;;;;;;;;;6187154;23;20454;-89
2022/04/15 21:25:37;;;;;;;18.13;11.05;;;;;;;;;;6186979;23;20017;-91
2022/04/15 21:28:03;;;;;;;19.50;11.90;;;;;;;;;;6166212;23;20013;-90
2022/04/15 21:30:29;;;;;;;20.10;12.52;;;;;;;;;;6190788;23;20020;-91
2022/04/15 21:32:58;;;;;;;21.38;12.35;;;;;;;;;;6189999;23;20027;-90
2022/04/15 21:35:24;;;;;;;19.42;12.93;;;;;;;;;;6190175;23;20477;-90
2022/04/15 21:37:50;;;;;;;20.65;13.10;;;;;;;;;;6189044;23;20048;-90
2022/04/15 21:40:16;;;;;;;20.75;13.27;;;;;;;;;;6186489;23;20052;-92
2022/04/15 21:42:42;;;;;;;18.65;12.20;;;;;;;;;;6161450;23;20016;-92
2022/04/15 21:45:10;;;;;;;18.48;12.80;;;;;;;;;;6160143;23;20016;-89
2022/04/15 21:47:38;;;;;;;21.30;14.73;;;;;;;;;;6184525;23;20450;-89
2022/04/15 21:50:04;;;;;;;22.30;13.20;;;;;;;;;;6184415;23;20044;-91
2022/04/15 21:52:30;;;;;;;22.10;12.88;;;;;;;;;;6186693;23;20016;-91
2022/04/15 21:54:56;;;;;;;21.23;13.32;;;;;;;;;;6185433;23;20091;-91
2022/04/15 21:57:22;;;;;;;18.55;13.00;;;;;;;;;;6186861;23;20024;-90
2022/04/15 21:59:48;;;;;;;18.52;12.88;;;;;;;;;;6186335;23;20438;-92
2022/04/15 22:02:17;;;;;;;21.77;14.25;;;;;;;;;;6188289;23;20009;-90
2022/04/15 22:04:44;;;;;;;19.75;13.85;;;;;;;;;;6163222;23;20023;-91
2022/04/15 22:07:11;;;;;;;20.20;14.32;;;;;;;;;;6186208;23;20024;-89
2022/04/15 22:09:42;;;;;;;23.27;15.20;;;;;;;;;;6184652;23;20043;-91
2022/04/15 22:12:08;;;;;;;21.33;15.25;;;;;;;;;;6184747;23;20013;-90
2022/04/15 22:14:38;;;;;;;21.45;14.45;;;;;;;;;;6159608;23;20016;-91
2022/04/15 22:17:11;;;;;;;21.60;14.13;;;;;;;;;;6184424;23;20071;-89
2022/04/15 22:19:38;;;;;;;21.77;14.73;;;;;;;;;;6160114;23;20040;-90
2022/04/15 22:22:10;;;;;;;23.63;15.70;;;;;;;;;;6184576;23;20013;-90
2022/04/15 22:24:39;;;;;;;24.08;15.43;;;;;;;;;;6159906;23;20013;-91
2022/04/15 22:27:05;;;;;;;20.52;14.88;;;;;;;;;;6159874;23;20097;-90
2022/04/15 22:29:32;;;;;;;21.58;14.85;;;;;;;;;;6186069;23;20075;-90
2022/04/15 22:31:59;;;;;;;22.92;15.90;;;;;;;;;;6185946;23;20017;-90
2022/04/15 22:34:27;;;;;;;22.67;15.25;;;;;;;;;;6184149;23;20017;-90
2022/04/15 22:36:54;;;;;;;24.95;15.27;;;;;;;;;;6184886;23;20013;-89
2022/04/15 22:39:22;;;;;;;24.55;15.38;;;;;;;;;;6186298;23;20047;-90
2022/04/15 22:41:49;;;;;;;22.75;15.20;;;;;;;;;;6161099;23;20009;-91
2022/04/15 22:44:15;;;;;;;24.20;15.43;;;;;;;;;;6188809;23;20085;-90
2022/04/15 22:46:41;;;;;;;24.92;16.02;;;;;;;;;;6165164;23;20020;-90
2022/04/15 22:49:08;;;;;;;23.08;15.48;;;;;;;;;;6189599;23;20450;-90
2022/04/15 22:51:34;;;;;;;21.73;15.57;;;;;;;;;;6163329;23;20044;-90
2022/04/15 22:54:00;;;;;;;25.02;15.75;;;;;;;;;;6187942;23;20019;-91
2022/04/15 22:59:11;;;;;;;21.20;15.68;;;;;;;;;;6187585;23;20017;-90
2022/04/15 23:01:37;;;;;;;22.85;15.40;;;;;;;;;;6161083;23;20044;-91
2022/04/15 23:04:04;;;;;;;23.60;16.10;;;;;;;;;;6188062;23;20020;-90
2022/04/15 23:06:32;;;;;;;21.00;14.80;;;;;;;;;;6189839;23;20013;-90
2022/04/15 23:08:59;;;;;;;21.67;14.57;;;;;;;;;;6188647;23;20024;-91
2022/04/15 23:11:26;;;;;;;23.10;15.32;;;;;;;;;;6162380;23;20521;-90
2022/04/15 23:13:52;;;;;;;22.05;15.60;;;;;;;;;;6187016;23;20017;-90
2022/04/15 23:16:18;;;;;;;22.23;15.32;;;;;;;;;;6187299;23;20076;-90
2022/04/15 23:18:45;;;;;;;20.92;14.88;;;;;;;;;;6186676;23;20383;-91
2022/04/15 23:21:12;;;;;;;21.98;16.38;;;;;;;;;;6186794;23;20013;-91
2022/04/15 23:23:41;;;;;;;23.52;15.52;;;;;;;;;;6188504;23;20472;-90
2022/04/15 23:26:09;;;;;;;23.10;15.27;;;;;;;;;;6162164;23;20072;-90
2022/04/15 23:28:35;;;;;;;23.20;15.98;;;;;;;;;;6188262;23;20078;-91
2022/04/15 23:31:02;;;;;;;22.52;15.52;;;;;;;;;;6162234;23;20077;-90
2022/04/15 23:33:28;;;;;;;20.13;14.88;;;;;;;;;;6186931;23;20020;-90
2022/04/15 23:35:55;;;;;;;23.25;16.35;;;;;;;;;;6163033;23;20092;-90
2022/04/15 23:38:23;;;;;;;20.73;15.02;;;;;;;;;;6163117;23;20020;-91
2022/04/15 23:40:50;;;;;;;18.67;13.98;;;;;;;;;;6161754;23;20024;-90
2022/04/15 23:43:17;;;;;;;21.70;14.05;;;;;;;;;;6188413;23;20009;-90
2022/04/15 23:48:34;;;;;;;21.52;13.77;;;;;;;;;;6187732;23;20028;-90
2022/04/15 23:51:10;;;;;;;20.02;14.20;;;;;;;;;;6185379;23;20024;-90
2022/04/15 23:53:36;;;;;;;19.67;13.25;;;;;;;;;;6186362;23;20017;-91
2022/04/15 23:56:03;;;;;;;23.98;13.40;;;;;;;;;;6185695;23;20049;-91
2022/04/15 23:58:29;;;;;;;21.38;13.82;;;;;;;;;;6185601;23;20013;-91
